Detalii statie ROAGROLTAL [00001D0B]

Toti senzorii

Date Temperatura solului [C]Precipitatii [mm]Voltaj baterie [mV]Leaf Wetness [Min]HC Air temperature [C]HC Relative humidity [%]Punctul de roua [C]
medieminmaxsumaultimatimpmedieminmaxmediemediemin
2019-04-19 19:00:00 12.1 12 12.3 0 7166 9.11 7.89 10.49 90.99 7.5 6.4
2019-04-19 20:00:00 11.8 11.6 12 0 7098 7.44 7.26 7.85 100 7.4 7.2
2019-04-19 21:00:00 11.5 11.4 11.7 0.2 7020 7.47 7.37 7.62 100 7.4 7.3
2019-04-19 22:00:00 11.3 11.1 11.4 0 6952 6.96 6.32 7.4 100 6.9 6.3
2019-04-19 23:00:00 11 10.8 11.2 0 6932 5.04 4.14 6.06 100 5 4.1
2019-04-20 00:00:00 10.7 10.5 10.9 0 6904 5.25 4.61 5.71 100 5.2 4.6
2019-04-20 01:00:00 10.4 10.3 10.6 0 6874 4.17 3.64 5.05 100 4.1 3.6
2019-04-20 02:00:00 10.2 10.1 10.4 0 6844 4.85 3.72 5.5 100 4.8 3.7
2019-04-20 03:00:00 10 9.9 10.2 0 6834 5.61 5.43 5.76 100 5.5 5.4
2019-04-20 04:00:00 9.8 9.8 9.9 0 6816 5.2 4.93 5.5 100 5.1 4.9
2019-04-20 05:00:00 9.7 9.6 9.8 0.2 6786 4.52 4.33 4.8 100 4.4 4.3
2019-04-20 06:00:00 9.4 9.3 9.6 0 6786 4.46 4.28 4.76 100 4.4 4.2
2019-04-20 07:00:00 9.3 9.2 9.4 0 7138 6.17 4.9 7.66 100 6.1 4.9
2019-04-20 08:00:00 9.2 9.1 9.4 0 7264 9.06 8.03 10.23 93.91 8 7.6
2019-04-20 09:00:00 9.4 9.3 9.6 0 7254 11.16 10.26 12.13 77.09 7 6.3
2019-04-20 10:00:00 9.9 9.7 10.3 0 7254 13.12 12.28 13.87 65.79 6.6 4.1
2019-04-20 11:00:00 10.6 10.3 11.1 0 7246 14.01 13.16 15.1 51.53 3.9 2.3
2019-04-20 12:00:00 11.4 11.1 11.8 0 7246 15.57 14.54 16.64 42.49 2.6 1.3
2019-04-20 13:00:00 12.2 11.9 12.4 0 7246 14.69 13.51 16.37 42.75 1.9 1
2019-04-20 14:00:00 12.6 12.4 13.1 0 7254 15.21 13.84 17 42 2.1 1
2019-04-20 15:00:00 13.1 12.9 13.4 0 7246 15.14 13.99 16.38 39.59 1.2 0.5
2019-04-20 16:00:00 13.4 13.3 13.7 0 7246 15.84 14.57 16.93 37.72 1.1 0.5
2019-04-20 17:00:00 13.6 13.4 13.8 0 7236 14.32 13.44 16.27 42.99 1.7 1.1
2019-04-20 18:00:00 13.4 13.2 13.7 0 7236 13.59 12.45 14.85 45.38 1.8 1.1
2019-04-20 19:00:00 13 12.8 13.4 0 7158 11.19 9.47 12.41 54.22 2 1.5
2019-04-20 20:00:00 12.6 12.3 13.1 0 7088 8.36 7.91 9.12 67.09 2.4 2.2
2019-04-20 21:00:00 12.1 12 12.4 0 7010 6.65 5.33 8 77.39 2.8 2.4
2019-04-20 22:00:00 11.7 11.5 11.9 0 6952 4.64 4.32 5.13 94.57 3.7 3.4
2019-04-20 23:00:00 11.3 11.1 11.6 0 6874 5.25 4.17 6.33 86.83 3 2.4
2019-04-21 00:00:00 10.9 10.8 11.1 0 6854 6.08 5.37 7.15 78.56 2.5 2.3
2019-04-21 01:00:00 10.6 10.5 10.8 0 6826 6.34 5.41 7.05 78.87 2.8 2.5
2019-04-21 02:00:00 10.5 10.4 10.6 0 6806 5.93 5.59 6.52 82 2.9 2.4
2019-04-21 03:00:00 10.3 10.2 10.5 0 6806 5.5 4.82 6.03 88.32 3.6 2.9
2019-04-21 04:00:00 10.1 10 10.3 0 6786 5.05 4.66 5.43 96.04 4.3 4.1
2019-04-21 05:00:00 10 9.9 10.2 0 6776 5.23 5.03 5.53 98.36 4.9 4.6
2019-04-21 06:00:00 9.9 9.9 10 0 6756 5.34 5.09 5.59 99.99 5.2 5
2019-04-21 07:00:00 9.9 9.8 10 0 6884 5.86 5.54 6.05 100 5.8 5.5
2019-04-21 08:00:00 9.8 9.8 10 0 7254 8.83 6.53 9.98 80.14 5.3 4
2019-04-21 09:00:00 10.1 10 10.3 0 7254 11.21 10.21 12.34 71.65 6.1 5
2019-04-21 10:00:00 10.5 10.3 10.9 0 7246 14.04 12.94 15.49 63.09 6.9 6.6
2019-04-21 11:00:00 11.2 10.9 11.7 0 7246 15.28 14.53 15.87 57.11 6.7 6.1
2019-04-21 12:00:00 12 11.6 12.4 0 7236 16.82 15.51 18.05 52.36 6.8 6.3
2019-04-21 13:00:00 12.8 12.3 13.3 0 7236 17.85 17.26 19.17 47.63 6.3 5.2
2019-04-21 14:00:00 13.7 13.2 14 0 7236 18.48 17.83 19.2 36.83 3.2 2
2019-04-21 15:00:00 14.5 14.3 14.8 0 7246 18.44 17.42 19.08 39.39 4.1 2.6
2019-04-21 16:00:00 15 14.8 15.1 0 7236 18.51 17.9 18.98 38.13 3.7 3
2019-04-21 17:00:00 15.1 14.9 15.3 0 7236 17.8 16.99 18.25 41.01 4.2 3.2
2019-04-21 18:00:00 14.9 14.7 15.1 0 7246 15.63 14.5 17.2 54.47 6.3 6.1